sensor_id;sensor_type;location;lat;lon;timestamp;pressure;altitude;pressure_sealevel;temperature;humidity
20987;BME280;10652;50.306;8.570;2023-02-15T00:03:19;99384.28;;;0.61;100.00
20987;BME280;10652;50.306;8.570;2023-02-15T00:07:21;99369.53;;;0.53;100.00
20987;BME280;10652;50.306;8.570;2023-02-15T00:11:24;99369.50;;;0.50;100.00
20987;BME280;10652;50.306;8.570;2023-02-15T00:15:41;99357.38;;;0.47;100.00
20987;BME280;10652;50.306;8.570;2023-02-15T00:19:43;99358.22;;;0.45;100.00
20987;BME280;10652;50.306;8.570;2023-02-15T00:23:45;99353.91;;;0.47;100.00
20987;BME280;10652;50.306;8.570;2023-02-15T00:27:47;99352.22;;;0.49;100.00
20987;BME280;10652;50.306;8.570;2023-02-15T00:31:50;99351.34;;;0.48;100.00
20987;BME280;10652;50.306;8.570;2023-02-15T00:35:56;99345.41;;;0.54;100.00
20987;BME280;10652;50.306;8.570;2023-02-15T00:39:59;99335.88;;;0.50;100.00
20987;BME280;10652;50.306;8.570;2023-02-15T00:44:01;99342.63;;;0.40;100.00
20987;BME280;10652;50.306;8.570;2023-02-15T00:48:04;99341.63;;;0.32;100.00
20987;BME280;10652;50.306;8.570;2023-02-15T00:52:06;99345.03;;;0.27;100.00
20987;BME280;10652;50.306;8.570;2023-02-15T00:56:10;99347.53;;;0.22;100.00
20987;BME280;10652;50.306;8.570;2023-02-15T01:00:12;99351.91;;;0.28;100.00
20987;BME280;10652;50.306;8.570;2023-02-15T01:04:14;99350.25;;;0.31;100.00
20987;BME280;10652;50.306;8.570;2023-02-15T01:08:16;99344.84;;;0.16;100.00
20987;BME280;10652;50.306;8.570;2023-02-15T01:12:18;99345.63;;;0.09;100.00
20987;BME280;10652;50.306;8.570;2023-02-15T01:16:22;99346.38;;;0.05;100.00
20987;BME280;10652;50.306;8.570;2023-02-15T01:20:27;99336.13;;;0.09;100.00
20987;BME280;10652;50.306;8.570;2023-02-15T01:24:30;99331.91;;;0.13;100.00
20987;BME280;10652;50.306;8.570;2023-02-15T01:28:32;99332.78;;;0.15;100.00
20987;BME280;10652;50.306;8.570;2023-02-15T01:32:35;99332.81;;;0.16;100.00
20987;BME280;10652;50.306;8.570;2023-02-15T01:36:37;99338.81;;;0.15;100.00
20987;BME280;10652;50.306;8.570;2023-02-15T01:40:39;99334.44;;;0.11;100.00
20987;BME280;10652;50.306;8.570;2023-02-15T01:44:58;99329.38;;;0.19;100.00
20987;BME280;10652;50.306;8.570;2023-02-15T01:49:14;99325.13;;;0.21;100.00
20987;BME280;10652;50.306;8.570;2023-02-15T01:54:01;99323.34;;;0.18;100.00
20987;BME280;10652;50.306;8.570;2023-02-15T01:57:43;99306.97;;;0.16;100.00
20987;BME280;10652;50.306;8.570;2023-02-15T02:01:48;99306.06;;;0.13;100.00
20987;BME280;10652;50.306;8.570;2023-02-15T02:05:52;99304.34;;;0.13;100.00
20987;BME280;10652;50.306;8.570;2023-02-15T02:09:54;99301.78;;;0.13;100.00
20987;BME280;10652;50.306;8.570;2023-02-15T02:13:58;99299.25;;;0.18;100.00
20987;BME280;10652;50.306;8.570;2023-02-15T02:18:13;99301.09;;;0.27;100.00
20987;BME280;10652;50.306;8.570;2023-02-15T02:35:23;99297.75;;;0.35;100.00
20987;BME280;10652;50.306;8.570;2023-02-15T02:39:35;99291.75;;;0.38;100.00
20987;BME280;10652;50.306;8.570;2023-02-15T02:48:08;99285.66;;;0.31;100.00
20987;BME280;10652;50.306;8.570;2023-02-15T02:52:53;99279.59;;;0.32;100.00
20987;BME280;10652;50.306;8.570;2023-02-15T02:56:55;99271.03;;;0.35;100.00
20987;BME280;10652;50.306;8.570;2023-02-15T03:05:16;99264.06;;;0.29;100.00
20987;BME280;10652;50.306;8.570;2023-02-15T03:09:29;99250.25;;;0.26;100.00
20987;BME280;10652;50.306;8.570;2023-02-15T03:13:45;99257.97;;;0.22;100.00
20987;BME280;10652;50.306;8.570;2023-02-15T03:17:55;99262.22;;;0.20;100.00
20987;BME280;10652;50.306;8.570;2023-02-15T03:22:15;99258.06;;;0.30;100.00
20987;BME280;10652;50.306;8.570;2023-02-15T03:26:21;99258.09;;;0.33;100.00
20987;BME280;10652;50.306;8.570;2023-02-15T03:30:28;99252.97;;;0.36;100.00
20987;BME280;10652;50.306;8.570;2023-02-15T03:34:31;99245.22;;;0.36;100.00
20987;BME280;10652;50.306;8.570;2023-02-15T03:38:38;99255.50;;;0.33;100.00
20987;BME280;10652;50.306;8.570;2023-02-15T03:42:44;99257.22;;;0.33;100.00
20987;BME280;10652;50.306;8.570;2023-02-15T03:46:56;99245.97;;;0.29;100.00
20987;BME280;10652;50.306;8.570;2023-02-15T03:51:04;99249.41;;;0.28;100.00
20987;BME280;10652;50.306;8.570;2023-02-15T03:55:26;99244.25;;;0.28;100.00
20987;BME280;10652;50.306;8.570;2023-02-15T03:59:29;99245.19;;;0.32;100.00
20987;BME280;10652;50.306;8.570;2023-02-15T04:03:56;99245.13;;;0.27;100.00
20987;BME280;10652;50.306;8.570;2023-02-15T04:07:59;99243.34;;;0.24;100.00
20987;BME280;10652;50.306;8.570;2023-02-15T04:12:01;99241.69;;;0.30;100.00
20987;BME280;10652;50.306;8.570;2023-02-15T04:16:03;99231.34;;;0.30;100.00
20987;BME280;10652;50.306;8.570;2023-02-15T04:20:08;99229.69;;;0.35;100.00
20987;BME280;10652;50.306;8.570;2023-02-15T04:24:29;99221.88;;;0.30;100.00
20987;BME280;10652;50.306;8.570;2023-02-15T04:28:49;99217.56;;;0.29;100.00
20987;BME280;10652;50.306;8.570;2023-02-15T04:32:53;99226.13;;;0.25;100.00
20987;BME280;10652;50.306;8.570;2023-02-15T04:36:55;99216.63;;;0.24;100.00
20987;BME280;10652;50.306;8.570;2023-02-15T04:40:57;99226.84;;;0.15;100.00
20987;BME280;10652;50.306;8.570;2023-02-15T04:44:59;99226.91;;;0.18;100.00
20987;BME280;10652;50.306;8.570;2023-02-15T04:49:01;99213.19;;;0.22;100.00
20987;BME280;10652;50.306;8.570;2023-02-15T04:53:04;99213.19;;;0.25;100.00
20987;BME280;10652;50.306;8.570;2023-02-15T04:57:06;99210.50;;;0.16;100.00
20987;BME280;10652;50.306;8.570;2023-02-15T05:01:10;99201.00;;;0.15;100.00
20987;BME280;10652;50.306;8.570;2023-02-15T05:05:12;99203.59;;;0.15;100.00
20987;BME280;10652;50.306;8.570;2023-02-15T05:09:16;99212.19;;;0.14;100.00
20987;BME280;10652;50.306;8.570;2023-02-15T05:13:18;99209.66;;;0.17;100.00
20987;BME280;10652;50.306;8.570;2023-02-15T05:17:20;99211.41;;;0.18;100.00
20987;BME280;10652;50.306;8.570;2023-02-15T05:21:23;99201.09;;;0.21;100.00
20987;BME280;10652;50.306;8.570;2023-02-15T05:25:25;99197.72;;;0.28;100.00
20987;BME280;10652;50.306;8.570;2023-02-15T05:30:06;99193.50;;;0.32;100.00
20987;BME280;10652;50.306;8.570;2023-02-15T05:34:13;99187.38;;;0.25;100.00
20987;BME280;10652;50.306;8.570;2023-02-15T05:38:15;99199.44;;;0.26;100.00
20987;BME280;10652;50.306;8.570;2023-02-15T05:42:17;99189.03;;;0.20;100.00
20987;BME280;10652;50.306;8.570;2023-02-15T05:46:19;99190.66;;;0.15;100.00
20987;BME280;10652;50.306;8.570;2023-02-15T05:50:21;99194.97;;;0.13;100.00
20987;BME280;10652;50.306;8.570;2023-02-15T05:54:24;99189.81;;;0.13;100.00
20987;BME280;10652;50.306;8.570;2023-02-15T05:58:26;99193.25;;;0.15;100.00
20987;BME280;10652;50.306;8.570;2023-02-15T06:02:28;99202.72;;;0.13;100.00
20987;BME280;10652;50.306;8.570;2023-02-15T06:06:31;99201.00;;;0.13;100.00
20987;BME280;10652;50.306;8.570;2023-02-15T06:10:33;99207.88;;;0.13;100.00
20987;BME280;10652;50.306;8.570;2023-02-15T06:14:35;99194.09;;;0.14;100.00
20987;BME280;10652;50.306;8.570;2023-02-15T06:18:37;99201.97;;;0.21;100.00
20987;BME280;10652;50.306;8.570;2023-02-15T06:22:39;99204.56;;;0.23;100.00
20987;BME280;10652;50.306;8.570;2023-02-15T06:26:41;99200.25;;;0.23;100.00
20987;BME280;10652;50.306;8.570;2023-02-15T06:30:43;99201.88;;;0.15;100.00
20987;BME280;10652;50.306;8.570;2023-02-15T06:34:45;99210.47;;;0.13;100.00
20987;BME280;10652;50.306;8.570;2023-02-15T06:38:49;99212.13;;;0.09;100.00
20987;BME280;10652;50.306;8.570;2023-02-15T06:42:51;99220.84;;;0.16;100.00
20987;BME280;10652;50.306;8.570;2023-02-15T06:46:53;99221.69;;;0.15;100.00
20987;BME280;10652;50.306;8.570;2023-02-15T06:50:55;99221.69;;;0.15;100.00
20987;BME280;10652;50.306;8.570;2023-02-15T06:54:57;99221.69;;;0.15;100.00
20987;BME280;10652;50.306;8.570;2023-02-15T06:58:59;99221.66;;;0.12;100.00
20987;BME280;10652;50.306;8.570;2023-02-15T07:03:02;99237.16;;;0.12;100.00
20987;BME280;10652;50.306;8.570;2023-02-15T07:07:08;99226.94;;;0.21;100.00
20987;BME280;10652;50.306;8.570;2023-02-15T07:11:10;99230.47;;;0.29;100.00
20987;BME280;10652;50.306;8.570;2023-02-15T07:15:31;99233.97;;;0.31;100.00
20987;BME280;10652;50.306;8.570;2023-02-15T07:19:33;99231.91;;;0.78;100.00
20987;BME280;10652;50.306;8.570;2023-02-15T07:23:36;99230.22;;;0.82;100.00
20987;BME280;10652;50.306;8.570;2023-02-15T07:27:39;99232.78;;;0.79;100.00
20987;BME280;10652;50.306;8.570;2023-02-15T07:31:41;99223.28;;;0.78;100.00
20987;BME280;10652;50.306;8.570;2023-02-15T07:35:48;99224.09;;;0.74;100.00
20987;BME280;10652;50.306;8.570;2023-02-15T07:39:50;99223.22;;;0.73;100.00
20987;BME280;10652;50.306;8.570;2023-02-15T07:43:52;99215.50;;;0.75;100.00
20987;BME280;10652;50.306;8.570;2023-02-15T07:47:54;99212.13;;;0.82;100.00
20987;BME280;10652;50.306;8.570;2023-02-15T07:51:56;99207.03;;;0.91;100.00
20987;BME280;10652;50.306;8.570;2023-02-15T07:56:00;99204.50;;;0.94;100.00
20987;BME280;10652;50.306;8.570;2023-02-15T08:00:03;99203.66;;;0.95;100.00
20987;BME280;10652;50.306;8.570;2023-02-15T08:04:13;99206.28;;;0.99;100.00
20987;BME280;10652;50.306;8.570;2023-02-15T08:08:15;99197.66;;;0.99;100.00
20987;BME280;10652;50.306;8.570;2023-02-15T08:12:32;99195.09;;;1.02;100.00
20987;BME280;10652;50.306;8.570;2023-02-15T08:16:38;99202.03;;;1.06;100.00
20987;BME280;10652;50.306;8.570;2023-02-15T08:20:40;99202.03;;;1.06;100.00
20987;BME280;10652;50.306;8.570;2023-02-15T08:24:42;99205.50;;;1.08;100.00
20987;BME280;10652;50.306;8.570;2023-02-15T08:28:44;99203.75;;;1.07;100.00
20987;BME280;10652;50.306;8.570;2023-02-15T08:32:48;99213.22;;;1.03;100.00
20987;BME280;10652;50.306;8.570;2023-02-15T08:36:50;99199.41;;;1.01;100.00
20987;BME280;10652;50.306;8.570;2023-02-15T08:40:52;99200.28;;;1.03;100.00
20987;BME280;10652;50.306;8.570;2023-02-15T08:44:54;99201.09;;;1.01;100.00
20987;BME280;10652;50.306;8.570;2023-02-15T08:48:57;99198.59;;;1.07;100.00
20987;BME280;10652;50.306;8.570;2023-02-15T08:52:59;99193.41;;;1.07;100.00
20987;BME280;10652;50.306;8.570;2023-02-15T08:57:01;99190.03;;;1.12;100.00
20987;BME280;10652;50.306;8.570;2023-02-15T09:01:16;99184.88;;;1.17;100.00
20987;BME280;10652;50.306;8.570;2023-02-15T09:05:19;99176.25;;;1.18;100.00
20987;BME280;10652;50.306;8.570;2023-02-15T09:09:21;99173.75;;;1.32;100.00
20987;BME280;10652;50.306;8.570;2023-02-15T09:13:23;99159.19;;;1.40;100.00
20987;BME280;10652;50.306;8.570;2023-02-15T09:17:25;99160.03;;;1.42;100.00
20987;BME280;10652;50.306;8.570;2023-02-15T09:21:28;99170.47;;;1.49;100.00
20987;BME280;10652;50.306;8.570;2023-02-15T09:25:30;99164.47;;;1.59;100.00
20987;BME280;10652;50.306;8.570;2023-02-15T09:29:32;99152.44;;;1.65;100.00
20987;BME280;10652;50.306;8.570;2023-02-15T09:33:35;99150.75;;;1.70;100.00
20987;BME280;10652;50.306;8.570;2023-02-15T09:37:37;99155.91;;;1.67;100.00
20987;BME280;10652;50.306;8.570;2023-02-15T09:59:58;99159.56;;;1.99;100.00
20987;BME280;10652;50.306;8.570;2023-02-15T10:13:04;99166.56;;;2.27;100.00
20987;BME280;10652;50.306;8.570;2023-02-15T10:21:35;99176.97;;;2.30;100.00
20987;BME280;10652;50.306;8.570;2023-02-15T10:25:47;99180.41;;;2.26;100.00
20987;BME280;10652;50.306;8.570;2023-02-15T10:30:05;99175.22;;;2.32;100.00
20987;BME280;10652;50.306;8.570;2023-02-15T10:34:34;99181.41;;;2.59;100.00
20987;BME280;10652;50.306;8.570;2023-02-15T10:38:49;99176.22;;;2.69;100.00
20987;BME280;10652;50.306;8.570;2023-02-15T10:51:28;99160.69;;;2.81;96.59
20987;BME280;10652;50.306;8.570;2023-02-15T10:59:59;99177.13;;;2.91;95.19
20987;BME280;10652;50.306;8.570;2023-02-15T11:04:14;99171.09;;;3.07;95.77
20987;BME280;10652;50.306;8.570;2023-02-15T11:08:29;99170.25;;;3.17;94.50
20987;BME280;10652;50.306;8.570;2023-02-15T11:12:33;99172.84;;;3.22;92.86
20987;BME280;10652;50.306;8.570;2023-02-15T11:16:41;99158.09;;;3.28;92.55
20987;BME280;10652;50.306;8.570;2023-02-15T11:21:07;99157.25;;;3.37;91.42
20987;BME280;10652;50.306;8.570;2023-02-15T11:25:18;99157.25;;;3.38;90.31
20987;BME280;10652;50.306;8.570;2023-02-15T11:29:37;99153.78;;;3.35;89.40
20987;BME280;10652;50.306;8.570;2023-02-15T11:33:44;99157.25;;;3.35;89.09
20987;BME280;10652;50.306;8.570;2023-02-15T11:38:12;99153.78;;;3.38;88.10
20987;BME280;10652;50.306;8.570;2023-02-15T11:42:19;99156.38;;;3.40;89.24
20987;BME280;10652;50.306;8.570;2023-02-15T11:46:24;99158.97;;;3.47;88.55
20987;BME280;10652;50.306;8.570;2023-02-15T11:50:29;99143.38;;;3.53;88.48
20987;BME280;10652;50.306;8.570;2023-02-15T11:54:35;99138.19;;;3.58;87.64
20987;BME280;10652;50.306;8.570;2023-02-15T11:59:10;99134.69;;;3.63;88.21
20987;BME280;10652;50.306;8.570;2023-02-15T12:03:19;99117.34;;;3.73;87.47
20987;BME280;10652;50.306;8.570;2023-02-15T12:07:25;99121.69;;;3.74;86.18
20987;BME280;10652;50.306;8.570;2023-02-15T12:11:34;99115.63;;;3.75;86.04
20987;BME280;10652;50.306;8.570;2023-02-15T12:15:37;99104.38;;;3.76;85.52
20987;BME280;10652;50.306;8.570;2023-02-15T12:19:39;99114.75;;;3.70;84.68
20987;BME280;10652;50.306;8.570;2023-02-15T12:23:51;99104.38;;;3.68;85.06
20987;BME280;10652;50.306;8.570;2023-02-15T12:27:53;99100.91;;;3.68;84.86
20987;BME280;10652;50.306;8.570;2023-02-15T12:31:56;99107.00;;;3.67;85.21
20987;BME280;10652;50.306;8.570;2023-02-15T12:36:11;99102.66;;;3.60;84.10
20987;BME280;10652;50.306;8.570;2023-02-15T12:40:25;99104.41;;;3.55;85.03
20987;BME280;10652;50.306;8.570;2023-02-15T12:44:34;99093.16;;;3.51;85.16
20987;BME280;10652;50.306;8.570;2023-02-15T12:48:36;99089.69;;;3.51;85.70
20987;BME280;10652;50.306;8.570;2023-02-15T12:52:43;99087.09;;;3.51;85.45
20987;BME280;10652;50.306;8.570;2023-02-15T12:56:45;99083.63;;;3.58;86.07
20987;BME280;10652;50.306;8.570;2023-02-15T13:00:47;99084.50;;;3.54;85.61
20987;BME280;10652;50.306;8.570;2023-02-15T13:04:50;99078.44;;;3.58;86.28
20987;BME280;10652;50.306;8.570;2023-02-15T13:08:55;99058.50;;;3.61;85.70
20987;BME280;10652;50.306;8.570;2023-02-15T13:12:58;99052.44;;;3.61;85.44
20987;BME280;10652;50.306;8.570;2023-02-15T13:17:02;99060.22;;;3.61;86.07
20987;BME280;10652;50.306;8.570;2023-02-15T13:21:23;99061.09;;;3.57;85.69
20987;BME280;10652;50.306;8.570;2023-02-15T13:25:30;99052.44;;;3.55;86.69
20987;BME280;10652;50.306;8.570;2023-02-15T13:29:37;99044.63;;;3.64;89.09
20987;BME280;10652;50.306;8.570;2023-02-15T13:33:43;99042.91;;;3.57;86.51
20987;BME280;10652;50.306;8.570;2023-02-15T14:04:12;99021.34;;;3.27;86.44
20987;BME280;10652;50.306;8.570;2023-02-15T14:16:35;99017.88;;;3.28;87.90
20987;BME280;10652;50.306;8.570;2023-02-15T14:25:42;99009.25;;;3.26;87.95
20987;BME280;10652;50.306;8.570;2023-02-15T14:29:56;99006.63;;;3.29;88.18
20987;BME280;10652;50.306;8.570;2023-02-15T14:33:59;99004.06;;;3.14;87.23
20987;BME280;10652;50.306;8.570;2023-02-15T14:47:00;98999.75;;;3.18;88.43
20987;BME280;10652;50.306;8.570;2023-02-15T14:51:06;98994.53;;;3.19;88.08
20987;BME280;10652;50.306;8.570;2023-02-15T14:55:08;98985.94;;;3.07;87.61
20987;BME280;10652;50.306;8.570;2023-02-15T14:59:18;98991.97;;;3.01;87.98
20987;BME280;10652;50.306;8.570;2023-02-15T15:03:24;98979.88;;;2.96;88.26
20987;BME280;10652;50.306;8.570;2023-02-15T15:07:48;98981.63;;;2.87;88.71
20987;BME280;10652;50.306;8.570;2023-02-15T15:11:53;98981.66;;;2.86;89.48
20987;BME280;10652;50.306;8.570;2023-02-15T15:16:23;98990.28;;;2.85;90.41
20987;BME280;10652;50.306;8.570;2023-02-15T15:50:15;98981.66;;;2.77;91.39
20987;BME280;10652;50.306;8.570;2023-02-15T15:54:24;98985.13;;;2.67;91.53
20987;BME280;10652;50.306;8.570;2023-02-15T15:58:27;98979.91;;;2.64;92.23
20987;BME280;10652;50.306;8.570;2023-02-15T16:02:32;98982.53;;;2.52;92.20
20987;BME280;10652;50.306;8.570;2023-02-15T16:06:36;98978.22;;;2.44;93.55
20987;BME280;10652;50.306;8.570;2023-02-15T16:10:40;98988.56;;;2.47;93.97
20987;BME280;10652;50.306;8.570;2023-02-15T16:14:42;98985.09;;;2.36;93.34
20987;BME280;10652;50.306;8.570;2023-02-15T16:18:46;98980.78;;;2.34;94.28
20987;BME280;10652;50.306;8.570;2023-02-15T16:22:54;98981.66;;;2.34;94.63
20987;BME280;10652;50.306;8.570;2023-02-15T16:27:15;98974.72;;;2.27;94.49
20987;BME280;10652;50.306;8.570;2023-02-15T16:31:22;98975.59;;;2.19;94.77
20987;BME280;10652;50.306;8.570;2023-02-15T16:35:24;98984.22;;;2.15;95.58
20987;BME280;10652;50.306;8.570;2023-02-15T16:39:26;98992.00;;;2.12;96.04
20987;BME280;10652;50.306;8.570;2023-02-15T16:43:30;98981.63;;;2.07;96.50
20987;BME280;10652;50.306;8.570;2023-02-15T16:47:36;98977.28;;;1.92;95.58
20987;BME280;10652;50.306;8.570;2023-02-15T16:51:43;98975.53;;;1.84;97.22
20987;BME280;10652;50.306;8.570;2023-02-15T16:55:54;98972.94;;;1.85;98.31
20987;BME280;10652;50.306;8.570;2023-02-15T17:00:03;98977.25;;;1.91;98.54
20987;BME280;10652;50.306;8.570;2023-02-15T17:08:36;98983.31;;;1.93;100.00
20987;BME280;10652;50.306;8.570;2023-02-15T17:12:43;98989.38;;;1.96;100.00
20987;BME280;10652;50.306;8.570;2023-02-15T17:16:53;98999.75;;;2.02;100.00
20987;BME280;10652;50.306;8.570;2023-02-15T17:20:59;98998.03;;;2.03;100.00
20987;BME280;10652;50.306;8.570;2023-02-15T17:25:03;98998.00;;;2.01;100.00
20987;BME280;10652;50.306;8.570;2023-02-15T17:29:19;99004.03;;;1.96;100.00
20987;BME280;10652;50.306;8.570;2023-02-15T17:33:37;99012.69;;;1.90;100.00
20987;BME280;10652;50.306;8.570;2023-02-15T17:37:48;99017.00;;;1.94;100.00
20987;BME280;10652;50.306;8.570;2023-02-15T17:41:50;99010.94;;;1.88;100.00
20987;BME280;10652;50.306;8.570;2023-02-15T17:45:56;99007.53;;;1.98;100.00
20987;BME280;10652;50.306;8.570;2023-02-15T17:50:01;99008.38;;;2.01;100.00
20987;BME280;10652;50.306;8.570;2023-02-15T17:54:04;99002.31;;;2.01;100.00
20987;BME280;10652;50.306;8.570;2023-02-15T17:58:25;98994.56;;;2.01;100.00
20987;BME280;10652;50.306;8.570;2023-02-15T18:02:31;98985.06;;;1.94;100.00
20987;BME280;10652;50.306;8.570;2023-02-15T18:06:55;98984.19;;;1.89;100.00
20987;BME280;10652;50.306;8.570;2023-02-15T18:11:16;98977.22;;;1.82;100.00
20987;BME280;10652;50.306;8.570;2023-02-15T18:15:36;98979.81;;;1.79;100.00
20987;BME280;10652;50.306;8.570;2023-02-15T18:19:40;98976.34;;;1.74;100.00
20987;BME280;10652;50.306;8.570;2023-02-15T18:23:43;98987.56;;;1.73;100.00
20987;BME280;10652;50.306;8.570;2023-02-15T18:27:45;98990.19;;;1.76;100.00
20987;BME280;10652;50.306;8.570;2023-02-15T18:31:52;98986.72;;;1.71;100.00
20987;BME280;10652;50.306;8.570;2023-02-15T18:35:54;98988.44;;;1.72;100.00
20987;BME280;10652;50.306;8.570;2023-02-15T18:39:56;98983.25;;;1.69;100.00
20987;BME280;10652;50.306;8.570;2023-02-15T18:43:59;98977.19;;;1.65;100.00
20987;BME280;10652;50.306;8.570;2023-02-15T18:48:01;98982.38;;;1.70;100.00
20987;BME280;10652;50.306;8.570;2023-02-15T18:52:03;98987.56;;;1.65;100.00
20987;BME280;10652;50.306;8.570;2023-02-15T18:56:05;98986.69;;;1.58;100.00
20987;BME280;10652;50.306;8.570;2023-02-15T19:00:14;98976.28;;;1.55;100.00
20987;BME280;10652;50.306;8.570;2023-02-15T19:04:17;98976.28;;;1.52;100.00
20987;BME280;10652;50.306;8.570;2023-02-15T19:08:22;98970.25;;;1.52;100.00
20987;BME280;10652;50.306;8.570;2023-02-15T19:12:26;98974.56;;;1.51;100.00
20987;BME280;10652;50.306;8.570;2023-02-15T19:16:31;98968.53;;;1.52;100.00
20987;BME280;10652;50.306;8.570;2023-02-15T19:20:39;98969.38;;;1.48;100.00
20987;BME280;10652;50.306;8.570;2023-02-15T19:24:43;98974.56;;;1.48;100.00
20987;BME280;10652;50.306;8.570;2023-02-15T19:28:46;98984.91;;;1.51;100.00
20987;BME280;10652;50.306;8.570;2023-02-15T19:32:49;98987.53;;;1.57;100.00
20987;BME280;10652;50.306;8.570;2023-02-15T19:36:52;98984.94;;;1.64;100.00
20987;BME280;10652;50.306;8.570;2023-02-15T19:41:06;98988.38;;;1.53;100.00
20987;BME280;10652;50.306;8.570;2023-02-15T19:45:15;98978.03;;;1.53;100.00
20987;BME280;10652;50.306;8.570;2023-02-15T19:49:18;98971.09;;;1.49;100.00
20987;BME280;10652;50.306;8.570;2023-02-15T19:53:25;98974.50;;;1.45;100.00
20987;BME280;10652;50.306;8.570;2023-02-15T19:57:28;98983.13;;;1.41;100.00
20987;BME280;10652;50.306;8.570;2023-02-15T20:01:32;98989.19;;;1.43;100.00
20987;BME280;10652;50.306;8.570;2023-02-15T20:05:34;98991.81;;;1.49;100.00
20987;BME280;10652;50.306;8.570;2023-02-15T20:09:39;98986.66;;;1.52;100.00
20987;BME280;10652;50.306;8.570;2023-02-15T20:13:42;98997.03;;;1.58;100.00
20987;BME280;10652;50.306;8.570;2023-02-15T20:17:44;98985.78;;;1.56;100.00
20987;BME280;10652;50.306;8.570;2023-02-15T20:21:46;98995.31;;;1.57;100.00
20987;BME280;10652;50.306;8.570;2023-02-15T20:26:00;98989.25;;;1.54;100.00
20987;BME280;10652;50.306;8.570;2023-02-15T20:30:06;98984.88;;;1.42;100.00
20987;BME280;10652;50.306;8.570;2023-02-15T20:34:14;98984.88;;;1.45;100.00
20987;BME280;10652;50.306;8.570;2023-02-15T20:42:20;98990.97;;;1.55;100.00
20987;BME280;10652;50.306;8.570;2023-02-15T20:46:23;99003.09;;;1.62;100.00
20987;BME280;10652;50.306;8.570;2023-02-15T20:50:28;98989.28;;;1.62;100.00
20987;BME280;10652;50.306;8.570;2023-02-15T20:54:33;98991.00;;;1.61;100.00
20987;BME280;10652;50.306;8.570;2023-02-15T20:58:36;98995.34;;;1.70;100.00
20987;BME280;10652;50.306;8.570;2023-02-15T21:02:39;98991.88;;;1.71;100.00
20987;BME280;10652;50.306;8.570;2023-02-15T21:06:41;98979.78;;;1.67;100.00
20987;BME280;10652;50.306;8.570;2023-02-15T21:10:44;98972.88;;;1.66;100.00
20987;BME280;10652;50.306;8.570;2023-02-15T21:14:47;98985.81;;;1.61;100.00
20987;BME280;10652;50.306;8.570;2023-02-15T21:18:49;98992.72;;;1.62;100.00
20987;BME280;10652;50.306;8.570;2023-02-15T21:22:52;98991.84;;;1.62;100.00
20987;BME280;10652;50.306;8.570;2023-02-15T21:26:55;98978.03;;;1.59;100.00
20987;BME280;10652;50.306;8.570;2023-02-15T21:30:59;98991.00;;;1.63;100.00
20987;BME280;10652;50.306;8.570;2023-02-15T21:35:01;98999.63;;;1.58;100.00
20987;BME280;10652;50.306;8.570;2023-02-15T21:39:04;99003.03;;;1.54;100.00
20987;BME280;10652;50.306;8.570;2023-02-15T21:43:13;99007.34;;;1.51;100.00
20987;BME280;10652;50.306;8.570;2023-02-15T21:47:34;98993.56;;;1.53;100.00
20987;BME280;10652;50.306;8.570;2023-02-15T21:51:51;99003.06;;;1.53;100.00
20987;BME280;10652;50.306;8.570;2023-02-15T21:56:17;99000.47;;;1.57;100.00
20987;BME280;10652;50.306;8.570;2023-02-15T22:00:21;98991.84;;;1.62;100.00
20987;BME280;10652;50.306;8.570;2023-02-15T22:04:25;98993.56;;;1.56;100.00
20987;BME280;10652;50.306;8.570;2023-02-15T22:08:28;98990.97;;;1.52;100.00
20987;BME280;10652;50.306;8.570;2023-02-15T22:12:30;98993.53;;;1.50;100.00
20987;BME280;10652;50.306;8.570;2023-02-15T22:16:32;98978.84;;;1.43;100.00
20987;BME280;10652;50.306;8.570;2023-02-15T22:20:34;98978.81;;;1.36;100.00
20987;BME280;10652;50.306;8.570;2023-02-15T22:24:36;98983.09;;;1.29;100.00
20987;BME280;10652;50.306;8.570;2023-02-15T22:28:40;98978.75;;;1.25;100.00
20987;BME280;10652;50.306;8.570;2023-02-15T22:32:43;98983.94;;;1.28;100.00
20987;BME280;10652;50.306;8.570;2023-02-15T22:36:45;98983.09;;;1.29;100.00
20987;BME280;10652;50.306;8.570;2023-02-15T22:40:48;98988.28;;;1.32;100.00
20987;BME280;10652;50.306;8.570;2023-02-15T22:44:52;98977.91;;;1.32;100.00
20987;BME280;10652;50.306;8.570;2023-02-15T22:48:57;98979.63;;;1.32;100.00
20987;BME280;10652;50.306;8.570;2023-02-15T22:53:00;98974.47;;;1.33;100.00
20987;BME280;10652;50.306;8.570;2023-02-15T22:57:02;98981.34;;;1.28;100.00
20987;BME280;10652;50.306;8.570;2023-02-15T23:01:21;98985.69;;;1.29;100.00
20987;BME280;10652;50.306;8.570;2023-02-15T23:05:28;98987.44;;;1.35;100.00
20987;BME280;10652;50.306;8.570;2023-02-15T23:09:31;98981.44;;;1.40;100.00
20987;BME280;10652;50.306;8.570;2023-02-15T23:13:33;98972.78;;;1.35;100.00
20987;BME280;10652;50.306;8.570;2023-02-15T23:17:35;98982.25;;;1.33;100.00
20987;BME280;10652;50.306;8.570;2023-02-15T23:21:37;98979.69;;;1.39;100.00
20987;BME280;10652;50.306;8.570;2023-02-15T23:25:40;98973.66;;;1.43;100.00
20987;BME280;10652;50.306;8.570;2023-02-15T23:29:42;98966.72;;;1.35;100.00
20987;BME280;10652;50.306;8.570;2023-02-15T23:33:45;98970.94;;;1.19;100.00
20987;BME280;10652;50.306;8.570;2023-02-15T23:37:47;98975.22;;;1.08;100.00
20987;BME280;10652;50.306;8.570;2023-02-15T23:41:49;98970.00;;;0.99;100.00
20987;BME280;10652;50.306;8.570;2023-02-15T23:45:52;98967.34;;;0.90;100.00
20987;BME280;10652;50.306;8.570;2023-02-15T23:49:54;98965.66;;;0.95;100.00
20987;BME280;10652;50.306;8.570;2023-02-15T23:53:56;98974.34;;;1.03;100.00
20987;BME280;10652;50.306;8.570;2023-02-15T23:57:59;98965.72;;;1.04;100.00
